Time,TemperatureF,DewpointF,PressureIn,WindDirection,WindDirectionDegrees,WindSpeedMPH,WindSpeedGustMPH,Humidity,HourlyPrecipIn,Conditions,Clouds,dailyrainin,SoftwareType,DateUTC
2013-05-05 00:02:00,73.0,68.0,29.78,SW,236,0.0,3.0,84,0.00,,,0.00,,2013-05-05 04:02:00,
2013-05-05 00:12:00,72.0,68.0,29.77,West,275,2.0,3.0,86,0.00,,,0.00,,2013-05-05 04:12:00,
2013-05-05 00:23:00,72.0,68.0,29.77,West,275,2.0,3.0,86,0.00,,,0.00,,2013-05-05 04:23:00,
2013-05-05 00:32:00,71.0,67.0,29.77,WSW,247,0.0,3.0,87,0.00,,,0.00,,2013-05-05 04:32:00,
2013-05-05 00:43:00,71.0,67.0,29.77,WSW,247,0.0,3.0,87,0.00,,,0.00,,2013-05-05 04:43:00,
2013-05-05 00:53:00,70.0,66.0,29.77,West,269,0.0,3.0,88,0.00,,,0.00,,2013-05-05 04:53:00,
2013-05-05 01:02:00,70.0,67.0,29.77,West,269,0.0,0.0,89,0.00,,,0.00,,2013-05-05 05:02:00,
2013-05-05 01:12:00,70.0,67.0,29.77,West,269,0.0,0.0,89,0.00,,,0.00,,2013-05-05 05:12:00,
2013-05-05 01:22:00,69.0,66.0,29.75,West,279,2.0,3.0,91,0.00,,,0.00,,2013-05-05 05:22:00,
2013-05-05 01:32:00,69.0,67.0,29.75,West,279,2.0,6.0,92,0.00,,,0.00,,2013-05-05 05:32:00,
2013-05-05 01:42:00,69.0,67.0,29.75,West,279,2.0,6.0,92,0.00,,,0.00,,2013-05-05 05:42:00,
2013-05-05 01:52:00,68.0,66.0,29.75,SW,231,1.0,3.0,92,0.00,,,0.00,,2013-05-05 05:52:00,
2013-05-05 02:01:00,68.0,66.0,29.75,SW,221,2.0,5.0,93,0.00,,,0.00,,2013-05-05 06:01:00,
2013-05-05 02:12:00,68.0,66.0,29.75,SW,221,2.0,5.0,93,0.00,,,0.00,,2013-05-05 06:12:00,
2013-05-05 02:21:00,67.0,65.0,29.75,SW,226,0.0,0.0,93,0.00,,,0.00,,2013-05-05 06:21:00,
2013-05-05 02:32:00,67.0,65.0,29.74,SW,234,0.0,0.0,94,0.00,,,0.00,,2013-05-05 06:32:00,
2013-05-05 02:42:00,67.0,65.0,29.74,SW,234,0.0,0.0,94,0.00,,,0.00,,2013-05-05 06:42:00,
2013-05-05 02:52:00,67.0,66.0,29.74,SW,234,0.0,0.0,95,0.00,,,0.00,,2013-05-05 06:52:00,
2013-05-05 03:01:00,66.0,65.0,29.74,SW,234,0.0,0.0,95,0.00,,,0.00,,2013-05-05 07:01:00,
2013-05-05 03:11:00,66.0,65.0,29.74,SW,234,0.0,0.0,95,0.00,,,0.00,,2013-05-05 07:11:00,
2013-05-05 03:22:00,66.0,65.0,29.74,SW,234,0.0,0.0,95,0.00,,,0.00,,2013-05-05 07:22:00,
2013-05-05 03:32:00,66.0,65.0,29.74,SW,234,0.0,0.0,96,0.00,,,0.00,,2013-05-05 07:32:00,
2013-05-05 03:42:00,66.0,65.0,29.74,SW,234,0.0,0.0,96,0.00,,,0.00,,2013-05-05 07:42:00,
2013-05-05 03:52:00,66.0,65.0,29.73,SW,234,0.0,0.0,96,0.00,,,0.00,,2013-05-05 07:52:00,
2013-05-05 04:02:00,67.0,66.0,29.73,SW,234,0.0,0.0,96,0.00,,,0.00,,2013-05-05 08:02:00,
2013-05-05 04:11:00,67.0,66.0,29.73,SW,234,0.0,0.0,96,0.00,,,0.00,,2013-05-05 08:11:00,
2013-05-05 04:21:00,67.0,66.0,29.74,West,281,2.0,3.0,96,0.00,,,0.00,,2013-05-05 08:21:00,
2013-05-05 04:32:00,67.0,66.0,29.73,West,281,0.0,1.0,97,0.00,,,0.00,,2013-05-05 08:32:00,
2013-05-05 04:42:00,67.0,66.0,29.73,West,281,0.0,1.0,97,0.00,,,0.00,,2013-05-05 08:42:00,
2013-05-05 04:53:00,67.0,66.0,29.74,West,279,0.0,3.0,96,0.00,,,0.00,,2013-05-05 08:53:00,
2013-05-05 05:01:00,67.0,66.0,29.74,West,277,2.0,3.0,96,0.00,,,0.00,,2013-05-05 09:01:00,
2013-05-05 05:11:00,67.0,66.0,29.74,West,277,2.0,3.0,96,0.00,,,0.00,,2013-05-05 09:11:00,
2013-05-05 05:21:00,67.0,66.0,29.73,West,277,1.0,3.0,96,0.00,,,0.00,,2013-05-05 09:21:00,
2013-05-05 05:33:00,67.0,66.0,29.73,WNW,303,2.0,5.0,96,0.00,,,0.00,,2013-05-05 09:33:00,
2013-05-05 05:42:00,67.0,66.0,29.73,WNW,303,2.0,5.0,96,0.00,,,0.00,,2013-05-05 09:42:00,
2013-05-05 05:52:00,67.0,66.0,29.74,WNW,292,2.0,6.0,95,0.00,,,0.00,,2013-05-05 09:52:00,
2013-05-05 06:03:00,67.0,66.0,29.75,NW,311,2.0,7.0,95,0.00,,,0.00,,2013-05-05 10:03:00,
2013-05-05 06:12:00,67.0,66.0,29.76,West,261,2.0,5.0,96,0.00,,,0.00,,2013-05-05 10:12:00,
2013-05-05 06:22:00,67.0,66.0,29.76,West,261,2.0,5.0,96,0.00,,,0.00,,2013-05-05 10:22:00,
2013-05-05 06:32:00,67.0,66.0,29.77,WNW,300,2.0,5.0,95,0.00,,,0.00,,2013-05-05 10:32:00,
2013-05-05 06:42:00,67.0,66.0,29.77,WNW,300,2.0,5.0,95,0.00,,,0.00,,2013-05-05 10:42:00,
2013-05-05 06:53:00,67.0,66.0,29.78,WNW,297,3.0,9.0,95,0.00,,,0.00,,2013-05-05 10:53:00,
2013-05-05 07:01:00,66.0,65.0,29.78,WSW,251,3.0,7.0,95,0.00,,,0.00,,2013-05-05 11:01:00,
2013-05-05 07:12:00,66.0,65.0,29.78,WSW,251,3.0,7.0,95,0.00,,,0.00,,2013-05-05 11:12:00,
2013-05-05 07:22:00,67.0,66.0,29.79,WNW,294,5.0,9.0,95,0.00,,,0.00,,2013-05-05 11:22:00,
2013-05-05 07:32:00,67.0,65.0,29.80,WNW,302,5.0,9.0,94,0.00,,,0.00,,2013-05-05 11:32:00,
2013-05-05 07:42:00,67.0,65.0,29.80,WNW,302,5.0,9.0,94,0.00,,,0.00,,2013-05-05 11:42:00,
2013-05-05 07:52:00,67.0,65.0,29.81,WNW,303,2.0,6.0,93,0.00,,,0.00,,2013-05-05 11:52:00,
2013-05-05 08:02:00,67.0,64.0,29.82,NW,322,3.0,7.0,91,0.00,,,0.00,,2013-05-05 12:02:00,
2013-05-05 08:11:00,67.0,64.0,29.82,NW,322,3.0,7.0,91,0.00,,,0.00,,2013-05-05 12:11:00,
2013-05-05 08:21:00,67.0,64.0,29.83,NW,315,5.0,10.0,90,0.00,,,0.00,,2013-05-05 12:21:00,
2013-05-05 08:32:00,68.0,64.0,29.83,NNW,331,6.0,12.0,88,0.00,,,0.00,,2013-05-05 12:32:00,
2013-05-05 08:42:00,68.0,64.0,29.83,NNW,331,6.0,12.0,88,0.00,,,0.00,,2013-05-05 12:42:00,
2013-05-05 08:52:00,69.0,65.0,29.83,West,268,8.0,15.0,86,0.00,,,0.00,,2013-05-05 12:52:00,
2013-05-05 09:01:00,68.0,63.0,29.84,WNW,297,6.0,16.0,84,0.00,,,0.00,,2013-05-05 13:01:00,
2013-05-05 09:11:00,68.0,63.0,29.84,WNW,297,6.0,16.0,84,0.00,,,0.00,,2013-05-05 13:11:00,
2013-05-05 09:21:00,68.0,62.0,29.85,West,270,9.0,16.0,82,0.00,,,0.00,,2013-05-05 13:21:00,
2013-05-05 09:32:00,68.0,62.0,29.86,NW,309,6.0,12.0,81,0.00,,,0.00,,2013-05-05 13:32:00,
2013-05-05 09:42:00,68.0,62.0,29.86,NW,309,6.0,12.0,81,0.00,,,0.00,,2013-05-05 13:42:00,
2013-05-05 09:52:00,68.0,61.0,29.86,NW,304,9.0,16.0,79,0.00,,,0.00,,2013-05-05 13:52:00,
2013-05-05 10:02:00,66.0,58.0,29.87,NW,311,6.0,12.0,76,0.00,,,0.00,,2013-05-05 14:02:00,
2013-05-05 10:11:00,66.0,57.0,29.87,NW,307,5.0,12.0,74,0.00,,,0.00,,2013-05-05 14:11:00,
2013-05-05 10:21:00,66.0,57.0,29.87,NW,307,5.0,12.0,74,0.00,,,0.00,,2013-05-05 14:21:00,
2013-05-05 10:32:00,67.0,58.0,29.87,NW,305,7.0,10.0,72,0.00,,,0.00,,2013-05-05 14:32:00,
2013-05-05 10:42:00,67.0,58.0,29.87,NW,305,7.0,10.0,72,0.00,,,0.00,,2013-05-05 14:42:00,
2013-05-05 10:52:00,68.0,56.0,29.88,West,281,5.0,10.0,65,0.00,,,0.00,,2013-05-05 14:52:00,
2013-05-05 11:02:00,68.0,56.0,29.88,West,277,4.0,7.0,65,0.00,,,0.00,,2013-05-05 15:02:00,
2013-05-05 11:11:00,68.0,56.0,29.88,West,277,4.0,7.0,65,0.00,,,0.00,,2013-05-05 15:11:00,
2013-05-05 11:21:00,68.0,54.0,29.88,WNW,297,3.0,6.0,61,0.00,,,0.00,,2013-05-05 15:21:00,
2013-05-05 11:33:00,69.0,50.0,29.88,WNW,298,2.0,7.0,50,0.00,,,0.00,,2013-05-05 15:33:00,
2013-05-05 11:43:00,69.0,50.0,29.88,WNW,298,2.0,7.0,50,0.00,,,0.00,,2013-05-05 15:43:00,
2013-05-05 11:53:00,70.0,48.0,29.88,West,278,4.0,12.0,45,0.00,,,0.00,,2013-05-05 15:53:00,
2013-05-05 12:03:00,71.0,49.0,29.88,West,271,3.0,6.0,45,0.00,,,0.00,,2013-05-05 16:03:00,
2013-05-05 12:12:00,71.0,49.0,29.88,West,271,3.0,6.0,45,0.00,,,0.00,,2013-05-05 16:12:00,
2013-05-05 12:23:00,72.0,48.0,29.88,NW,310,3.0,9.0,42,0.00,,,0.00,,2013-05-05 16:23:00,
2013-05-05 12:32:00,72.0,46.0,29.88,WNW,300,5.0,9.0,39,0.00,,,0.00,,2013-05-05 16:32:00,
2013-05-05 12:42:00,72.0,46.0,29.88,WNW,300,5.0,9.0,39,0.00,,,0.00,,2013-05-05 16:42:00,
2013-05-05 12:53:00,73.0,44.0,29.87,WNW,302,5.0,12.0,36,0.00,,,0.00,,2013-05-05 16:53:00,
2013-05-05 13:02:00,73.0,47.0,29.87,NW,317,3.0,8.0,39,0.00,,,0.00,,2013-05-05 17:02:00,
2013-05-05 13:12:00,73.0,47.0,29.87,NW,317,3.0,8.0,39,0.00,,,0.00,,2013-05-05 17:12:00,
2013-05-05 13:23:00,72.0,47.0,29.87,NW,306,4.0,10.0,41,0.00,,,0.00,,2013-05-05 17:23:00,
2013-05-05 13:32:00,74.0,49.0,29.87,WNW,282,5.0,10.0,42,0.00,,,0.00,,2013-05-05 17:32:00,
2013-05-05 13:42:00,74.0,49.0,29.87,WNW,282,5.0,10.0,42,0.00,,,0.00,,2013-05-05 17:42:00,
2013-05-05 13:52:00,74.0,49.0,29.87,West,267,3.0,9.0,42,0.00,,,0.00,,2013-05-05 17:52:00,
2013-05-05 14:01:00,74.0,48.0,29.87,NW,308,6.0,12.0,40,0.00,,,0.00,,2013-05-05 18:01:00,
2013-05-05 14:12:00,74.0,48.0,29.87,NW,308,6.0,12.0,40,0.00,,,0.00,,2013-05-05 18:12:00,
2013-05-05 14:21:00,75.0,48.0,29.86,West,271,5.0,12.0,38,0.00,,,0.00,,2013-05-05 18:21:00,
2013-05-05 14:32:00,75.0,48.0,29.85,NW,326,5.0,10.0,38,0.00,,,0.00,,2013-05-05 18:32:00,
2013-05-05 14:42:00,75.0,48.0,29.85,NW,326,5.0,10.0,38,0.00,,,0.00,,2013-05-05 18:42:00,
2013-05-05 14:52:00,75.0,45.0,29.85,West,280,3.0,10.0,35,0.00,,,0.00,,2013-05-05 18:52:00,
2013-05-05 15:01:00,75.0,48.0,29.85,WSW,248,3.0,9.0,39,0.00,,,0.00,,2013-05-05 19:01:00,
2013-05-05 15:11:00,75.0,48.0,29.85,WSW,248,3.0,9.0,39,0.00,,,0.00,,2013-05-05 19:11:00,
2013-05-05 15:21:00,76.0,49.0,29.85,NNW,338,2.0,7.0,39,0.00,,,0.00,,2013-05-05 19:21:00,
2013-05-05 15:32:00,76.0,46.0,29.84,WNW,298,3.0,12.0,35,0.00,,,0.00,,2013-05-05 19:32:00,
2013-05-05 15:42:00,76.0,46.0,29.84,WNW,298,3.0,12.0,35,0.00,,,0.00,,2013-05-05 19:42:00,
2013-05-05 15:52:00,77.0,46.0,29.84,NW,319,6.0,12.0,34,0.00,,,0.00,,2013-05-05 19:52:00,
2013-05-05 16:01:00,77.0,46.0,29.84,NW,319,6.0,12.0,34,0.00,,,0.00,,2013-05-05 20:01:00,
2013-05-05 16:11:00,77.0,46.0,29.84,NW,319,6.0,12.0,34,0.00,,,0.00,,2013-05-05 20:11:00,
2013-05-05 16:21:00,77.0,46.0,29.84,NW,319,6.0,12.0,34,0.00,,,0.00,,2013-05-05 20:21:00,